Time;durP1;ratioP1;P1;durP2;ratioP2;P2;SDS_P1;SDS_P2;PMS_P1;PMS_P2;Temp;Humidity;BMP_temperature;BMP_pressure;BME280_temperature;BME280_humidity;BME280_pressure;Samples;Min_cycle;Max_cycle;Signal;HPM_P1;HPM_P2
2024/01/07 00:01:01;;;;;;;9.37;5.73;;;;;;;6.69;nan;98916.47;4995839;28;20209;-81
2024/01/07 00:03:27;;;;;;;6.40;4.70;;;;;;;6.66;nan;98911.44;4991864;28;20213;-81
2024/01/07 00:05:52;;;;;;;7.20;5.00;;;;;;;6.68;nan;98921.81;4982003;28;20565;-81
2024/01/07 00:08:18;;;;;;;8.02;5.30;;;;;;;6.70;nan;98926.00;4983510;28;20439;-81
2024/01/07 00:10:43;;;;;;;8.93;6.00;;;;;;;6.69;nan;98919.09;4981680;28;20237;-81
2024/01/07 00:13:08;;;;;;;9.90;6.97;;;;;;;6.70;nan;98922.53;4959388;28;20212;-81
2024/01/07 00:15:34;;;;;;;9.80;6.60;;;;;;;6.73;nan;98927.59;4981210;28;20213;-81
2024/01/07 00:17:59;;;;;;;9.83;5.90;;;;;;;6.72;nan;98918.91;4982371;28;20232;-81
2024/01/07 00:20:24;;;;;;;7.30;4.90;;;;;;;6.71;nan;98917.22;4981758;28;20410;-81
2024/01/07 00:22:50;;;;;;;9.73;5.83;;;;;;;6.72;nan;98921.50;4980148;28;20269;-80
2024/01/07 00:25:15;;;;;;;8.37;6.10;;;;;;;6.72;nan;98924.13;4981049;28;20211;-81
2024/01/07 00:27:40;;;;;;;8.93;6.60;;;;;;;6.70;nan;98920.78;4986603;28;20209;-81
2024/01/07 00:30:06;;;;;;;6.63;5.13;;;;;;;6.69;nan;98921.69;4993843;28;20217;-81
2024/01/07 00:32:36;;;;;;;12.73;6.25;;;;;;;6.67;nan;98923.56;4974966;28;20209;-81
2024/01/07 00:35:02;;;;;;;8.07;6.10;;;;;;;6.67;nan;98920.97;4976016;28;20231;-81
2024/01/07 00:37:28;;;;;;;7.50;5.47;;;;;;;6.69;nan;98923.47;4993785;28;20985;-81
2024/01/07 00:39:53;;;;;;;11.03;6.87;;;;;;;6.72;nan;98933.72;4989160;28;21111;-81
2024/01/07 00:42:19;;;;;;;11.07;6.30;;;;;;;6.71;nan;98926.84;4986235;28;20454;-80
2024/01/07 00:44:44;;;;;;;10.43;7.80;;;;;;;6.71;nan;98929.44;4965779;28;20236;-81
2024/01/07 00:47:10;;;;;;;9.33;7.10;;;;;;;6.64;nan;98927.19;4985949;28;20239;-80
2024/01/07 00:49:35;;;;;;;10.77;6.80;;;;;;;6.59;nan;98928.41;4966783;28;20464;-81
2024/01/07 00:52:01;;;;;;;8.90;5.93;;;;;;;6.56;nan;98926.81;4967741;28;20209;-81
2024/01/07 00:54:26;;;;;;;12.27;6.57;;;;;;;6.54;nan;98920.84;4982813;28;20228;-80
2024/01/07 00:56:51;;;;;;;7.80;6.63;;;;;;;6.54;nan;98923.44;4982560;28;20298;-80
2024/01/07 00:59:17;;;;;;;8.37;5.33;;;;;;;6.51;nan;98928.84;4967358;28;20232;-80
2024/01/07 01:01:42;;;;;;;8.10;5.37;;;;;;;6.50;nan;98927.13;4987243;28;20209;-80
2024/01/07 01:04:07;;;;;;;8.17;6.43;;;;;;;6.49;nan;98928.09;4979615;28;20298;-80
2024/01/07 01:06:33;;;;;;;7.73;5.33;;;;;;;6.50;nan;98923.69;4977125;28;20307;-80
2024/01/07 01:08:58;;;;;;;10.03;7.23;;;;;;;6.51;nan;98920.16;4977074;28;20471;-80
2024/01/07 01:11:23;;;;;;;10.03;6.97;;;;;;;6.49;nan;98927.25;4953676;28;20467;-80
2024/01/07 01:13:49;;;;;;;7.33;6.57;;;;;;;6.47;nan;98923.88;4976570;28;20219;-80
2024/01/07 01:16:14;;;;;;;10.50;6.03;;;;;;;6.44;nan;98935.34;4976888;28;20279;-80
2024/01/07 01:18:40;;;;;;;9.90;5.63;;;;;;;6.40;nan;98939.06;4957002;28;20978;-80
2024/01/07 01:21:05;;;;;;;11.20;7.27;;;;;;;6.34;nan;98940.22;4976704;28;20213;-79
2024/01/07 01:23:30;;;;;;;12.40;7.97;;;;;;;6.30;nan;98946.56;4954770;28;20236;-80
2024/01/07 01:25:56;;;;;;;9.77;6.50;;;;;;;6.27;nan;98949.34;4955290;28;20727;-80
2024/01/07 01:28:21;;;;;;;7.73;5.37;;;;;;;6.22;nan;98951.38;4983762;28;20787;-79
2024/01/07 01:30:47;;;;;;;8.10;5.43;;;;;;;6.19;nan;98951.53;4971929;28;20217;-79
2024/01/07 01:33:12;;;;;;;12.80;7.20;;;;;;;6.14;nan;98948.34;4966096;28;20666;-79
2024/01/07 01:35:38;;;;;;;8.52;5.75;;;;;;;6.09;nan;98958.19;4983408;28;20819;-80
2024/01/07 01:38:03;;;;;;;10.07;6.50;;;;;;;6.07;nan;98947.84;4982716;28;20691;-79
2024/01/07 01:40:29;;;;;;;9.37;6.03;;;;;;;6.07;nan;98954.81;4960441;28;20236;-79
2024/01/07 01:42:54;;;;;;;10.73;7.33;;;;;;;6.03;nan;98951.56;4983125;28;20217;-78
2024/01/07 01:45:20;;;;;;;10.13;6.07;;;;;;;6.00;nan;98945.69;4983539;28;20206;-79
2024/01/07 01:47:47;;;;;;;8.33;5.40;;;;;;;5.96;nan;98951.03;4984485;28;20690;-79
2024/01/07 01:50:13;;;;;;;8.00;4.95;;;;;;;5.96;nan;98965.84;4965143;28;20205;-79
2024/01/07 01:52:39;;;;;;;9.95;6.65;;;;;;;5.94;nan;98959.88;4985593;28;20207;-80
2024/01/07 01:55:08;;;;;;;11.52;6.22;;;;;;;5.93;nan;98960.75;4963074;28;20211;-79
2024/01/07 01:57:38;;;;;;;9.18;6.10;;;;;;;5.92;nan;98959.94;4961865;28;20205;-79
2024/01/07 02:00:08;;;;;;;10.77;7.65;;;;;;;5.89;nan;98954.88;4961432;28;20201;-79
2024/01/07 02:02:34;;;;;;;10.55;5.80;;;;;;;5.87;nan;98953.28;4981180;28;20265;-79
2024/01/07 02:05:03;;;;;;;12.10;7.67;;;;;;;5.83;nan;98952.59;4963968;28;20209;-79
2024/01/07 02:07:30;;;;;;;9.20;6.53;;;;;;;5.79;nan;98953.72;4979847;28;20498;-79
2024/01/07 02:09:55;;;;;;;11.98;6.95;;;;;;;5.76;nan;98953.88;4974141;28;20472;-79
2024/01/07 02:12:23;;;;;;;9.10;6.30;;;;;;;5.74;nan;98958.31;4963120;28;20358;-79
2024/01/07 02:14:49;;;;;;;10.65;5.65;;;;;;;5.74;nan;98955.72;4961997;28;20559;-78
2024/01/07 02:17:16;;;;;;;8.50;5.90;;;;;;;5.71;nan;98953.28;4942250;28;20241;-79
2024/01/07 02:19:41;;;;;;;10.30;6.13;;;;;;;5.72;nan;98965.38;4961369;28;20245;-77
2024/01/07 02:22:06;;;;;;;9.33;5.77;;;;;;;5.69;nan;98966.38;4959339;28;20212;-77
2024/01/07 02:24:32;;;;;;;6.63;4.60;;;;;;;5.70;nan;98967.25;4960543;28;20226;-79
2024/01/07 02:27:02;;;;;;;6.33;3.87;;;;;;;5.72;nan;98973.19;4956162;28;20203;-77
2024/01/07 02:29:28;;;;;;;8.00;5.00;;;;;;;5.72;nan;98975.81;4942815;28;20507;-77
2024/01/07 02:31:53;;;;;;;7.65;4.05;;;;;;;5.72;nan;98973.19;4944903;28;20307;-79
2024/01/07 02:34:19;;;;;;;6.50;4.10;;;;;;;5.68;nan;98964.72;4961477;28;20286;-77
2024/01/07 02:36:44;;;;;;;7.47;4.07;;;;;;;5.66;nan;98976.97;4959242;28;20201;-78
2024/01/07 02:39:09;;;;;;;7.97;5.40;;;;;;;5.66;nan;98969.16;4942774;28;21230;-78
2024/01/07 02:41:35;;;;;;;5.50;3.77;;;;;;;5.67;nan;98964.78;4960281;28;20270;-79
2024/01/07 02:44:00;;;;;;;7.00;4.07;;;;;;;5.65;nan;98966.66;4944038;28;20725;-78
2024/01/07 02:46:26;;;;;;;6.20;4.33;;;;;;;5.65;nan;98967.47;4960779;28;20718;-77
2024/01/07 02:48:51;;;;;;;4.77;3.93;;;;;;;5.64;nan;98971.00;4958640;28;20288;-79
2024/01/07 02:51:16;;;;;;;5.53;4.17;;;;;;;5.63;nan;98969.31;4957707;28;20206;-78
2024/01/07 02:53:42;;;;;;;8.37;4.90;;;;;;;5.62;nan;98970.25;4962332;28;20220;-78
2024/01/07 02:56:08;;;;;;;11.27;5.97;;;;;;;5.63;nan;98968.50;4960910;28;20206;-76
2024/01/07 02:58:34;;;;;;;4.30;3.90;;;;;;;5.62;nan;98970.25;4961089;28;20211;-79
2024/01/07 03:01:00;;;;;;;5.20;3.97;;;;;;;5.58;nan;98975.72;4961391;28;20225;-77
2024/01/07 03:03:25;;;;;;;7.55;5.30;;;;;;;5.56;nan;98973.16;4960318;28;20242;-77
2024/01/07 03:05:51;;;;;;;6.63;4.70;;;;;;;5.57;nan;98971.44;4958649;28;20453;-79
2024/01/07 03:08:16;;;;;;;7.90;5.90;;;;;;;5.58;nan;98968.72;4954679;28;20524;-78
2024/01/07 03:10:41;;;;;;;7.13;4.33;;;;;;;5.60;nan;98974.69;4965583;28;20222;-79
2024/01/07 03:13:07;;;;;;;4.43;3.80;;;;;;;5.57;nan;98979.25;4972774;28;20648;-77
2024/01/07 03:15:32;;;;;;;8.27;4.40;;;;;;;5.55;nan;98976.72;4971345;28;20232;-77
2024/01/07 03:17:58;;;;;;;7.17;4.73;;;;;;;5.52;nan;98976.88;4975257;28;20263;-79
2024/01/07 03:20:23;;;;;;;8.93;5.47;;;;;;;5.45;nan;98973.75;4975920;28;20841;-77
2024/01/07 03:22:48;;;;;;;7.30;5.30;;;;;;;5.41;nan;98976.59;4972130;28;20697;-77
2024/01/07 03:25:14;;;;;;;9.77;5.33;;;;;;;5.40;nan;98978.38;4973861;28;20266;-77
2024/01/07 03:27:39;;;;;;;7.00;4.40;;;;;;;5.37;nan;98975.91;4980624;28;20230;-78
2024/01/07 03:30:05;;;;;;;11.30;6.67;;;;;;;5.35;nan;98969.97;4979551;28;20229;-77
2024/01/07 03:32:30;;;;;;;7.40;5.63;;;;;;;5.34;nan;98989.09;4980530;28;20278;-78
2024/01/07 03:34:56;;;;;;;9.17;5.80;;;;;;;5.36;nan;98979.44;4980747;28;20489;-77
2024/01/07 03:37:21;;;;;;;8.73;5.90;;;;;;;5.38;nan;98977.59;4981389;28;20496;-79
2024/01/07 03:39:47;;;;;;;7.17;5.30;;;;;;;5.38;nan;98984.59;4983116;28;20238;-77
2024/01/07 03:42:13;;;;;;;8.40;5.47;;;;;;;5.37;nan;98983.72;4981900;28;20261;-77
2024/01/07 03:44:39;;;;;;;8.90;5.23;;;;;;;5.36;nan;98982.03;4976270;28;20588;-79
2024/01/07 03:47:05;;;;;;;7.97;4.73;;;;;;;5.36;nan;98982.03;4974973;28;20472;-77
2024/01/07 03:49:30;;;;;;;8.23;5.70;;;;;;;5.34;nan;98989.09;4978741;28;20855;-78
2024/01/07 03:51:56;;;;;;;11.30;5.03;;;;;;;5.33;nan;98990.84;4975762;28;20210;-77
2024/01/07 03:54:21;;;;;;;12.17;7.77;;;;;;;5.34;nan;98991.69;4976197;28;20567;-78
2024/01/07 03:56:47;;;;;;;10.43;5.40;;;;;;;5.32;nan;98986.59;4977176;28;20231;-77
2024/01/07 03:59:12;;;;;;;9.40;6.40;;;;;;;5.35;nan;98990.78;4977954;28;20698;-77
2024/01/07 04:01:37;;;;;;;9.60;5.33;;;;;;;5.37;nan;98994.13;4978530;28;20207;-78
2024/01/07 04:04:03;;;;;;;11.37;6.70;;;;;;;5.36;nan;98991.63;4980160;28;20533;-77
2024/01/07 04:06:28;;;;;;;12.07;6.60;;;;;;;5.33;nan;98992.63;4980543;28;20218;-78
2024/01/07 04:08:54;;;;;;;13.33;8.83;;;;;;;5.36;nan;98992.47;4979549;28;20482;-79
2024/01/07 04:11:19;;;;;;;12.57;8.00;;;;;;;5.39;nan;98996.66;4979218;28;20228;-77
2024/01/07 04:13:45;;;;;;;16.60;9.37;;;;;;;5.40;nan;98990.53;4978151;28;20506;-77
2024/01/07 04:16:18;;;;;;;14.13;7.43;;;;;;;5.40;nan;98987.94;4978037;28;20297;-77
2024/01/07 04:18:44;;;;;;;12.85;6.75;;;;;;;5.40;nan;98993.13;4979217;28;20201;-78
2024/01/07 04:21:10;;;;;;;14.23;8.70;;;;;;;5.39;nan;99000.13;4978259;28;20547;-77
2024/01/07 04:23:35;;;;;;;11.60;7.67;;;;;;;5.39;nan;99007.09;4976335;28;20481;-79
2024/01/07 04:26:00;;;;;;;13.97;7.13;;;;;;;5.39;nan;99012.28;4977917;28;20205;-78
2024/01/07 04:28:26;;;;;;;16.50;8.40;;;;;;;5.39;nan;99002.72;4978489;28;20612;-78
2024/01/07 04:30:51;;;;;;;11.83;7.27;;;;;;;5.39;nan;99010.53;4980720;28;20213;-78
2024/01/07 04:33:17;;;;;;;16.93;7.77;;;;;;;5.38;nan;99003.66;4978467;28;20213;-78
2024/01/07 04:35:42;;;;;;;11.60;7.50;;;;;;;5.37;nan;99004.56;4976737;28;20215;-78
2024/01/07 04:38:08;;;;;;;15.13;9.40;;;;;;;5.38;nan;99003.66;4977866;28;20440;-77
2024/01/07 04:40:34;;;;;;;15.90;8.75;;;;;;;5.39;nan;99004.47;4977714;28;20469;-77
2024/01/07 04:42:59;;;;;;;10.20;7.67;;;;;;;5.35;nan;99005.56;4973921;28;20222;-78
2024/01/07 04:45:25;;;;;;;10.07;5.30;;;;;;;5.35;nan;99006.41;4978634;28;20261;-77
2024/01/07 04:47:50;;;;;;;10.67;6.90;;;;;;;5.29;nan;99001.50;4976631;28;20499;-78
2024/01/07 04:50:19;;;;;;;11.63;8.30;;;;;;;5.29;nan;99006.72;4978672;28;20305;-79
2024/01/07 04:52:48;;;;;;;9.75;6.18;;;;;;;5.28;nan;99005.88;4978625;28;20503;-77
2024/01/07 04:55:13;;;;;;;10.15;6.65;;;;;;;5.27;nan;99017.22;4979266;28;20221;-79
2024/01/07 04:57:38;;;;;;;9.60;7.07;;;;;;;5.27;nan;99021.59;4977373;28;20224;-78
2024/01/07 05:00:05;;;;;;;17.10;7.80;;;;;;;5.26;nan;99015.53;4976623;28;20217;-77
2024/01/07 05:02:30;;;;;;;13.93;6.82;;;;;;;5.29;nan;99027.53;4979316;28;20308;-79
2024/01/07 05:04:55;;;;;;;14.00;7.53;;;;;;;5.31;nan;99030.91;4977936;28;20268;-78
2024/01/07 05:07:21;;;;;;;8.63;5.33;;;;;;;5.29;nan;99031.00;4978064;28;20719;-78
2024/01/07 05:09:46;;;;;;;6.60;4.80;;;;;;;5.28;nan;99029.31;4977104;28;20330;-77
2024/01/07 05:12:12;;;;;;;12.97;5.50;;;;;;;5.28;nan;99031.91;4976610;28;20200;-77
2024/01/07 05:14:37;;;;;;;9.00;6.00;;;;;;;5.30;nan;99034.44;4979236;28;20288;-78
2024/01/07 05:17:03;;;;;;;8.90;5.83;;;;;;;5.33;nan;99021.28;4981379;28;20225;-78
2024/01/07 05:19:29;;;;;;;10.48;7.47;;;;;;;5.32;nan;99036.06;4980365;28;20225;-78
2024/01/07 05:21:56;;;;;;;8.67;5.73;;;;;;;5.29;nan;99036.22;4980906;28;20226;-77
2024/01/07 05:24:21;;;;;;;10.80;6.40;;;;;;;5.30;nan;99039.66;4974421;28;21260;-78
2024/01/07 05:26:47;;;;;;;7.47;6.67;;;;;;;5.29;nan;99037.97;4972984;28;20194;-77
2024/01/07 05:29:13;;;;;;;8.47;5.07;;;;;;;5.30;nan;99039.66;4973977;28;20590;-79
2024/01/07 05:31:39;;;;;;;8.50;6.00;;;;;;;5.30;nan;99040.50;4975211;28;20278;-79
2024/01/07 05:34:05;;;;;;;10.07;5.75;;;;;;;5.29;nan;99053.59;4973878;28;20483;-77
2024/01/07 05:36:30;;;;;;;6.00;4.80;;;;;;;5.26;nan;99051.13;4972824;28;20209;-79
2024/01/07 05:38:56;;;;;;;9.70;5.97;;;;;;;5.15;nan;99051.69;4970225;28;20304;-79
2024/01/07 05:41:21;;;;;;;6.43;4.20;;;;;;;5.16;nan;99056.00;4971552;28;20405;-79
2024/01/07 05:43:47;;;;;;;8.07;4.50;;;;;;;5.16;nan;99052.50;4971413;28;20211;-78
2024/01/07 05:46:12;;;;;;;4.43;2.90;;;;;;;5.16;nan;99055.13;4969466;28;20213;-78
2024/01/07 05:48:45;;;;;;;3.80;2.80;;;;;;;5.17;nan;99055.06;4969816;28;20211;-79
2024/01/07 05:51:11;;;;;;;4.32;3.55;;;;;;;5.18;nan;99056.72;4977715;28;20205;-79
2024/01/07 05:53:37;;;;;;;6.07;3.80;;;;;;;5.18;nan;99059.34;4982876;28;20818;-77
2024/01/07 05:56:03;;;;;;;5.13;2.63;;;;;;;5.19;nan;99057.59;4984829;28;20791;-77
2024/01/07 05:58:29;;;;;;;6.43;4.30;;;;;;;5.19;nan;99061.03;4979520;28;20208;-78
2024/01/07 06:00:54;;;;;;;5.70;2.80;;;;;;;5.16;nan;99069.00;4982001;28;20375;-78
2024/01/07 06:03:20;;;;;;;4.40;2.87;;;;;;;5.14;nan;99076.03;4981509;28;21488;-78
2024/01/07 06:05:45;;;;;;;4.80;3.10;;;;;;;5.15;nan;99076.88;4983211;28;20271;-78
2024/01/07 06:08:11;;;;;;;6.00;3.87;;;;;;;5.14;nan;99075.22;4985236;28;20196;-79
2024/01/07 06:10:36;;;;;;;9.27;4.17;;;;;;;5.13;nan;99074.38;4983542;28;20312;-78
2024/01/07 06:13:03;;;;;;;3.73;2.70;;;;;;;5.12;nan;99080.47;4982559;28;20469;-77
2024/01/07 06:15:29;;;;;;;8.88;4.32;;;;;;;5.09;nan;99073.66;4982456;28;20215;-77
2024/01/07 06:17:55;;;;;;;7.80;4.60;;;;;;;5.09;nan;99072.81;4982437;28;20299;-79
2024/01/07 06:20:20;;;;;;;8.53;4.70;;;;;;;5.11;nan;99076.19;4980576;28;20225;-79
2024/01/07 06:22:46;;;;;;;5.23;4.10;;;;;;;5.10;nan;99075.38;4978246;28;20513;-78
2024/01/07 06:25:11;;;;;;;7.13;4.27;;;;;;;5.08;nan;99081.56;4979859;28;20205;-77
2024/01/07 06:27:38;;;;;;;4.40;3.33;;;;;;;5.09;nan;99080.63;4979754;28;20229;-80
2024/01/07 06:30:05;;;;;;;10.23;4.80;;;;;;;5.06;nan;99089.44;4979879;28;20547;-77
2024/01/07 06:32:32;;;;;;;6.95;3.90;;;;;;;5.03;nan;99087.00;4979919;28;20202;-78
2024/01/07 06:34:58;;;;;;;9.07;4.47;;;;;;;5.04;nan;99088.66;4978724;28;20222;-78
2024/01/07 06:37:23;;;;;;;8.43;5.30;;;;;;;5.04;nan;99087.81;4980079;28;20635;-78
2024/01/07 06:39:49;;;;;;;10.70;5.03;;;;;;;5.06;nan;99093.81;4980996;28;20217;-78
2024/01/07 06:42:14;;;;;;;7.90;3.93;;;;;;;5.03;nan;99093.97;4982164;28;20286;-77
2024/01/07 06:44:40;;;;;;;8.00;3.60;;;;;;;5.03;nan;99094.78;4979083;28;20222;-77
2024/01/07 06:47:05;;;;;;;5.97;3.30;;;;;;;5.03;nan;99100.00;4981331;28;20406;-79
2024/01/07 06:49:30;;;;;;;7.77;3.43;;;;;;;5.03;nan;99099.16;4980453;28;20213;-77
2024/01/07 06:51:56;;;;;;;5.80;2.93;;;;;;;5.04;nan;99091.25;4981042;28;20209;-78
2024/01/07 06:54:21;;;;;;;5.17;2.30;;;;;;;5.06;nan;99094.63;4962443;28;20240;-77
2024/01/07 06:56:47;;;;;;;11.33;3.50;;;;;;;5.04;nan;99104.28;4981473;28;20260;-77
2024/01/07 06:59:12;;;;;;;3.83;3.40;;;;;;;5.04;nan;99106.03;4979121;28;20752;-78
2024/01/07 07:01:38;;;;;;;7.07;3.43;;;;;;;5.00;nan;99110.56;4981805;28;20288;-77
2024/01/07 07:04:04;;;;;;;6.33;3.03;;;;;;;5.02;nan;99103.53;4982699;28;20204;-78
2024/01/07 07:06:29;;;;;;;6.83;3.60;;;;;;;5.03;nan;99110.41;4985207;28;20466;-77
2024/01/07 07:08:55;;;;;;;9.20;4.50;;;;;;;5.00;nan;99102.75;4982150;28;20691;-77
2024/01/07 07:11:20;;;;;;;11.97;4.93;;;;;;;5.01;nan;99112.25;4984697;28;20239;-79
2024/01/07 07:13:46;;;;;;;8.47;4.87;;;;;;;4.97;nan;99118.53;4984135;28;20531;-77
2024/01/07 07:16:12;;;;;;;6.27;5.00;;;;;;;4.97;nan;99115.94;4982680;28;20208;-78
2024/01/07 07:18:37;;;;;;;11.07;5.20;;;;;;;4.94;nan;99117.81;4977818;28;20210;-78
2024/01/07 07:21:03;;;;;;;16.43;5.30;;;;;;;4.97;nan;99120.25;4986293;28;20468;-77
2024/01/07 07:23:28;;;;;;;11.33;5.57;;;;;;;4.96;nan;99124.63;4981459;28;20406;-78
2024/01/07 07:25:54;;;;;;;15.87;6.17;;;;;;;4.94;nan;99130.81;4981489;28;20206;-78
2024/01/07 07:28:19;;;;;;;13.20;6.97;;;;;;;4.92;nan;99135.28;4972283;28;20240;-79
2024/01/07 07:30:45;;;;;;;15.73;8.00;;;;;;;4.93;nan;99144.75;4972472;28;20228;-77
2024/01/07 07:33:10;;;;;;;10.40;5.63;;;;;;;4.92;nan;99141.31;4969859;28;20224;-77
2024/01/07 07:35:37;;;;;;;11.00;5.90;;;;;;;4.93;nan;99145.59;4973087;28;20226;-79
2024/01/07 07:38:02;;;;;;;11.43;6.63;;;;;;;4.94;nan;99142.09;4970816;28;20471;-77
2024/01/07 07:40:28;;;;;;;9.03;6.57;;;;;;;4.94;nan;99139.50;4976566;28;20216;-78
2024/01/07 07:42:53;;;;;;;16.27;7.40;;;;;;;4.96;nan;99140.25;4978732;28;20205;-79
2024/01/07 07:45:18;;;;;;;10.53;6.37;;;;;;;4.96;nan;99145.44;4980305;28;21157;-77
2024/01/07 07:47:44;;;;;;;13.33;7.23;;;;;;;4.98;nan;99154.03;4980201;28;20330;-77
2024/01/07 07:50:13;;;;;;;14.50;6.73;;;;;;;4.95;nan;99153.34;4979194;28;20225;-78
2024/01/07 07:52:38;;;;;;;11.73;7.85;;;;;;;4.95;nan;99155.94;4979160;28;20594;-79
2024/01/07 07:55:06;;;;;;;14.63;6.93;;;;;;;4.97;nan;99157.56;4976823;28;20515;-76
2024/01/07 07:57:32;;;;;;;10.90;6.32;;;;;;;4.97;nan;99156.69;4982846;28;20205;-78
2024/01/07 07:59:57;;;;;;;15.10;5.93;;;;;;;4.99;nan;99155.72;4980426;28;20207;-79
2024/01/07 08:02:23;;;;;;;11.30;5.83;;;;;;;5.01;nan;99164.28;4979490;28;20254;-77
2024/01/07 08:04:48;;;;;;;11.03;5.43;;;;;;;4.99;nan;99155.72;4978330;28;20209;-77
2024/01/07 08:07:14;;;;;;;9.07;5.10;;;;;;;4.97;nan;99156.69;4983492;28;20209;-78
2024/01/07 08:09:39;;;;;;;11.63;4.37;;;;;;;5.00;nan;99167.00;5043906;23;20277;-79
2024/01/07 08:12:05;;;;;;;6.97;3.93;;;;;;;5.03;nan;99166.84;4932348;28;20230;-78
2024/01/07 08:14:32;;;;;;;5.28;3.55;;;;;;;5.05;nan;99168.47;4945212;28;20278;-78
2024/01/07 08:16:57;;;;;;;4.22;3.42;;;;;;;5.07;nan;99176.16;4961150;28;20204;-77
2024/01/07 08:19:22;;;;;;;5.13;4.37;;;;;;;5.10;nan;99176.88;4955523;28;20249;-78
2024/01/07 08:21:48;;;;;;;6.57;5.00;;;;;;;5.13;nan;99173.28;4967451;28;20206;-78
2024/01/07 08:24:13;;;;;;;7.43;3.60;;;;;;;5.16;nan;99177.47;4965573;28;20931;-78
2024/01/07 08:26:39;;;;;;;7.00;3.17;;;;;;;5.17;nan;99174.81;4965448;28;20213;-78
2024/01/07 08:29:05;;;;;;;6.77;5.03;;;;;;;5.15;nan;99181.00;4966388;28;20826;-77
2024/01/07 08:31:31;;;;;;;7.90;4.53;;;;;;;5.16;nan;99186.16;4965218;28;20383;-78
2024/01/07 08:33:56;;;;;;;5.97;4.50;;;;;;;5.17;nan;99184.41;4965458;28;20479;-78
2024/01/07 08:36:22;;;;;;;8.80;4.27;;;;;;;5.16;nan;99180.94;4962945;28;20245;-78
2024/01/07 08:38:48;;;;;;;9.70;6.13;;;;;;;5.20;nan;99189.44;4968453;28;20527;-78
2024/01/07 08:41:17;;;;;;;8.23;5.60;;;;;;;5.18;nan;99183.47;4964162;28;20226;-78
2024/01/07 08:43:43;;;;;;;7.75;4.22;;;;;;;5.18;nan;99183.47;4965286;28;20211;-77
2024/01/07 08:46:09;;;;;;;14.68;6.95;;;;;;;5.20;nan;99185.09;4965681;28;20210;-78
2024/01/07 08:48:34;;;;;;;10.73;5.70;;;;;;;5.21;nan;99189.41;4949566;28;20228;-78
2024/01/07 08:51:00;;;;;;;13.90;6.47;;;;;;;5.27;nan;99190.84;4968812;28;20705;-77
2024/01/07 08:53:25;;;;;;;14.57;7.47;;;;;;;5.29;nan;99189.00;4968718;28;20204;-78
2024/01/07 08:55:51;;;;;;;11.50;7.67;;;;;;;5.26;nan;99195.19;4971039;28;20820;-78
2024/01/07 08:58:17;;;;;;;11.63;6.77;;;;;;;5.26;nan;99194.34;4978159;28;20912;-78
2024/01/07 09:00:43;;;;;;;12.30;6.30;;;;;;;5.21;nan;99191.13;4976489;28;20215;-77
2024/01/07 09:03:09;;;;;;;12.52;7.28;;;;;;;5.23;nan;99195.34;4971838;28;20204;-77
2024/01/07 09:05:35;;;;;;;13.73;7.05;;;;;;;5.24;nan;99201.41;4971002;28;20535;-78
2024/01/07 09:08:00;;;;;;;19.03;10.10;;;;;;;5.29;nan;99199.41;4969712;28;20466;-78
2024/01/07 09:10:26;;;;;;;14.13;8.47;;;;;;;5.31;nan;99201.03;4968410;28;20223;-78
2024/01/07 09:12:53;;;;;;;14.90;8.00;;;;;;;5.32;nan;99209.69;4969923;28;20674;-77
2024/01/07 09:15:20;;;;;;;13.95;8.07;;;;;;;5.30;nan;99211.53;4967712;28;20923;-77
2024/01/07 09:17:46;;;;;;;11.73;6.65;;;;;;;5.30;nan;99214.13;4966975;28;20663;-78
2024/01/07 09:20:12;;;;;;;24.45;7.65;;;;;;;5.29;nan;99215.03;4968148;28;20717;-78
2024/01/07 09:22:38;;;;;;;13.32;8.05;;;;;;;5.30;nan;99217.56;4950680;28;20298;-78
2024/01/07 09:25:04;;;;;;;15.10;8.77;;;;;;;5.30;nan;99216.75;4970228;28;20209;-78
2024/01/07 09:27:30;;;;;;;14.30;8.40;;;;;;;5.33;nan;99224.41;4968188;28;20704;-78
2024/01/07 09:29:55;;;;;;;13.70;7.70;;;;;;;5.34;nan;99223.47;4970063;28;20211;-78
2024/01/07 09:32:21;;;;;;;15.30;9.20;;;;;;;5.35;nan;99219.97;4965526;28;21616;-78
2024/01/07 09:34:46;;;;;;;7.47;6.67;;;;;;;5.40;nan;99232.75;4966445;28;20224;-78
2024/01/07 09:37:12;;;;;;;13.50;8.40;;;;;;;5.41;nan;99229.25;4970118;28;20318;-77
2024/01/07 09:39:41;;;;;;;15.23;8.20;;;;;;;5.39;nan;99231.06;4968495;28;20512;-78
2024/01/07 09:42:14;;;;;;;12.70;6.63;;;;;;;5.41;nan;99229.25;4967312;28;20700;-78
2024/01/07 09:44:43;;;;;;;11.90;7.50;;;;;;;5.43;nan;99236.06;4970112;28;20266;-78
2024/01/07 09:47:13;;;;;;;14.65;7.38;;;;;;;5.46;nan;99230.69;4969899;28;20262;-78
2024/01/07 09:49:40;;;;;;;15.35;7.00;;;;;;;5.48;nan;99233.22;4968534;28;20223;-78
2024/01/07 09:52:05;;;;;;;17.05;8.15;;;;;;;5.50;nan;99240.03;4967652;28;20437;-78
2024/01/07 09:54:33;;;;;;;12.82;7.30;;;;;;;5.52;nan;99233.00;4969267;28;20229;-78
2024/01/07 09:57:03;;;;;;;18.20;9.77;;;;;;;5.51;nan;99241.75;4968139;28;20206;-78
2024/01/07 09:59:29;;;;;;;13.55;9.23;;;;;;;5.48;nan;99241.91;4969757;28;20260;-78
2024/01/07 10:01:56;;;;;;;16.15;8.80;;;;;;;5.52;nan;99242.59;4966438;28;20693;-78
2024/01/07 10:04:22;;;;;;;11.75;8.45;;;;;;;5.50;nan;99240.03;4966920;28;20275;-78
2024/01/07 10:06:48;;;;;;;14.98;9.05;;;;;;;5.50;nan;99241.81;4963522;28;20212;-77
2024/01/07 10:09:15;;;;;;;20.75;12.80;;;;;;;5.54;nan;99238.16;4964487;28;20802;-77
2024/01/07 10:11:41;;;;;;;11.90;7.22;;;;;;;5.54;nan;99244.19;4966320;28;20228;-78
2024/01/07 10:14:06;;;;;;;13.00;9.93;;;;;;;5.54;nan;99239.00;4967458;28;20835;-78
2024/01/07 10:16:32;;;;;;;16.30;9.13;;;;;;;5.52;nan;99238.22;4967881;28;20696;-78
2024/01/07 10:18:58;;;;;;;18.80;8.95;;;;;;;5.54;nan;99232.94;4969119;28;20204;-78
2024/01/07 10:21:24;;;;;;;15.87;7.30;;;;;;;5.58;nan;99233.63;4965931;28;20228;-77
2024/01/07 10:23:50;;;;;;;10.67;8.00;;;;;;;5.62;nan;99237.78;4969638;28;20799;-78
2024/01/07 10:26:15;;;;;;;8.40;6.83;;;;;;;5.64;nan;99230.69;4967441;28;20468;-77
2024/01/07 10:28:43;;;;;;;13.57;6.80;;;;;;;5.67;nan;99235.75;4965683;28;20479;-77
2024/01/07 10:31:09;;;;;;;10.50;6.95;;;;;;;5.67;nan;99226.22;4966995;28;20306;-78
2024/01/07 10:33:34;;;;;;;11.83;9.10;;;;;;;5.69;nan;99239.97;4964213;28;20233;-77
2024/01/07 10:36:06;;;;;;;11.87;7.10;;;;;;;5.69;nan;99232.16;4964194;28;20485;-77
2024/01/07 10:38:35;;;;;;;13.27;8.25;;;;;;;5.72;nan;99231.16;4968578;28;20454;-77
2024/01/07 10:41:01;;;;;;;12.55;5.45;;;;;;;5.77;nan;99237.84;4966659;28;20545;-78
2024/01/07 10:43:30;;;;;;;8.98;5.35;;;;;;;5.80;nan;99225.56;4969047;28;20205;-77
2024/01/07 10:45:55;;;;;;;10.18;5.82;;;;;;;5.79;nan;99224.75;4968310;28;20641;-78
2024/01/07 10:48:24;;;;;;;10.57;5.63;;;;;;;5.86;nan;99227.88;4966382;28;20212;-78
2024/01/07 10:50:54;;;;;;;9.98;6.05;;;;;;;5.86;nan;99231.34;4967415;28;20217;-78
2024/01/07 10:53:21;;;;;;;9.00;5.50;;;;;;;5.94;nan;99220.53;4966894;28;20320;-78
2024/01/07 10:55:54;;;;;;;12.07;6.72;;;;;;;6.00;nan;99222.84;4968633;28;20306;-78
2024/01/07 10:58:20;;;;;;;4.90;4.13;;;;;;;6.05;nan;99225.19;4968053;28;20218;-77
2024/01/07 11:00:47;;;;;;;7.28;4.63;;;;;;;6.07;nan;99221.59;4945384;28;20661;-77
2024/01/07 11:03:32;;;;;;;8.20;5.28;;;;;;;6.07;nan;99228.59;4969314;28;20260;-77
2024/01/07 11:06:05;;;;;;;7.55;5.22;;;;;;;6.12;nan;99226.59;4965695;28;20193;-77
2024/01/07 11:09:03;;;;;;;11.45;6.72;;;;;;;6.16;nan;99230.75;4967884;28;20813;-78
2024/01/07 11:11:47;;;;;;;8.60;5.30;;;;;;;6.17;nan;99219.38;4951545;28;20236;-78
2024/01/07 11:14:39;;;;;;;7.53;6.70;;;;;;;6.16;nan;99217.69;4968572;28;20254;-77
2024/01/07 11:17:08;;;;;;;10.20;5.40;;;;;;;6.18;nan;99215.81;4967637;28;20290;-77
2024/01/07 11:19:35;;;;;;;8.77;6.03;;;;;;;6.23;nan;99208.59;4950369;28;20206;-78
2024/01/07 11:22:29;;;;;;;6.60;5.60;;;;;;;6.27;nan;99215.38;4967583;28;20214;-77
2024/01/07 11:25:01;;;;;;;7.63;5.97;;;;;;;6.31;nan;99216.88;4948146;28;20208;-78
2024/01/07 11:27:33;;;;;;;9.25;4.80;;;;;;;6.36;nan;99208.81;4965290;28;20221;-78
2024/01/07 11:30:06;;;;;;;9.15;5.65;;;;;;;6.40;nan;99212.97;4966546;28;20209;-78
2024/01/07 11:32:34;;;;;;;12.70;7.63;;;;;;;6.43;nan;99207.59;4965988;28;20692;-78
2024/01/07 11:35:01;;;;;;;11.27;7.47;;;;;;;6.45;nan;99205.72;4964587;28;20492;-77
2024/01/07 11:37:26;;;;;;;14.20;8.10;;;;;;;6.47;nan;99211.69;4966648;28;20193;-77
2024/01/07 11:39:57;;;;;;;9.30;6.53;;;;;;;6.50;nan;99202.88;4967934;28;20215;-78
2024/01/07 11:42:23;;;;;;;14.93;6.90;;;;;;;6.50;nan;99202.88;4947125;28;20467;-77
2024/01/07 11:44:53;;;;;;;9.80;5.17;;;;;;;6.51;nan;99204.53;4965056;28;20199;-78
2024/01/07 11:47:19;;;;;;;12.35;8.48;;;;;;;6.53;nan;99198.31;4967445;28;20457;-78
2024/01/07 11:49:45;;;;;;;7.75;6.10;;;;;;;6.54;nan;99201.78;4966291;28;20584;-77
2024/01/07 11:52:11;;;;;;;10.17;5.87;;;;;;;6.50;nan;99202.88;4966768;28;20219;-78